Terminal Aerodrome Forecast
Issued by NWS

Home | Current Version | Previous Version | Text Only | Print | Product List | Glossary On
Versions: 1 2 3 4 5 6 7 8 9 10 11 12 13 14 15 16
000
FTUS42 KTAE 201738
TAFECP
TAF
KECP 201738Z 2018/2118 06007KT P6SM FEW250
     FM210600 05006KT P6SM SCT040
     FM211500 07012KT P6SM OVC025=

USA.gov is the U.S. government's official web portal to all federal, state and local government web resources and services.